Home > Products > Valid Products > TAF

000
FTUS44 KMAF 201700 AAA
TAFMAF
TAF AMD
KMAF 201755Z 2018/2118 15009KT 6SM BR OVC025
      TEMPO 2018/2022 5SM TSRA BR OVC005CB
     FM210200 10009KT 6SM BR BKN020
      TEMPO 2110/2114 5SM SHRA BR BKN010=



000
FTUS44 KMAF 201700
TAFMAF
TAF
KMAF 201720Z 2018/2118 15009KT 6SM BR OVC025
      TEMPO 2018/2022 5SM BR OVC005
     FM210200 10009KT 6SM BR BKN020
      TEMPO 2110/2114 5SM SHRA BR BKN010=



000
FTUS44 KMAF 201500 AAA
TAFMAF
TAF AMD
KMAF 201532Z 2016/2112 15009KT P6SM OVC020
      TEMPO 2016/2018 5SM BR OVC005
     FM202100 14010KT P6SM BKN040
      TEMPO 2021/2101 5SM TSRA BR BKN030CB=



000
FTUS44 KMAF 201100
TAFMAF
TAF
KMAF 201130Z 2012/2112 13006KT P6SM OVC012
      TEMPO 2012/2015 5SM -SHRA BR OVC005
     FM201500 16010KT P6SM BKN020
      TEMPO 2017/2021 4SM TSRA BR BKN030CB
     FM202100 14010KT P6SM BKN040
      TEMPO 2021/2101 5SM TSRA BR BKN030CB=



000
FTUS44 KMAF 200500
TAFMAF
TAF
KMAF 200526Z 2006/2106 12009KT P6SM OVC012
      TEMPO 2007/2011 4SM TSRA BR FEW010 BKN050CB
     FM201100 13008KT P6SM OVC010
      TEMPO 2011/2015 2SM TSRA BR OVC005CB
     FM202100 16010KT P6SM BKN040=



000
FTUS44 KMAF 200300 AAA
TAFMAF
TAF AMD
KMAF 200351Z 2004/2024 12009KT P6SM OVC010
      TEMPO 2004/2007 4SM TSRA BR OVC009CB
     FM200700 12006KT P6SM OVC015
      TEMPO 2007/2011 1SM TSRA BR OVC005CB
     FM201100 13008KT P6SM OVC010
      TEMPO 2011/2015 2SM TSRA BR OVC005CB=



000
FTUS44 KMAF 200200 AAB
TAFMAF
TAF AMD
KMAF 200251Z 2003/2024 12009KT P6SM FEW016 BKN110
     FM200700 12006KT P6SM OVC015
      TEMPO 2007/2011 1SM TSRA BR OVC005CB
     FM201100 13008KT P6SM OVC010
      TEMPO 2011/2015 2SM TSRA BR OVC005CB=



000
FTUS44 KMAF 200100 AAA
TAFMAF
TAF AMD
KMAF 200148Z 2002/2024 12009KT P6SM OVC019
     FM200700 12006KT P6SM OVC015
      TEMPO 2007/2011 1SM TSRA BR OVC005CB
     FM201100 13008KT P6SM OVC010
      TEMPO 2011/2015 2SM TSRA BR OVC005CB=



000
FTUS44 KMAF 192300 RRA
TAFMAF
TAF
KMAF 192341Z 2000/2024 12009KT P6SM SCT030 OVC040
      TEMPO 2003/2007 1SM TSRA BR OVC015CB
     FM200700 12006KT P6SM OVC015
      TEMPO 2007/2011 1SM TSRA BR OVC005CB
     FM201100 13008KT P6SM OVC010
      TEMPO 2011/2015 2SM TSRA BR OVC005CB=



000
FTUS44 KMAF 192000 AAC
TAFMAF
TAF AMD
KMAF 192059Z 1921/2018 12010KT P6SM OVC035
      TEMPO 1921/1922 BKN019
     FM200600 10006KT 5SM BR OVC009
     FM201000 11006KT 4SM BR OVC004=



000
FTUS44 KMAF 191900 AAB
TAFMAF
TAF AMD
KMAF 191906Z 1919/2018 12010KT P6SM OVC035
     FM200600 10006KT 5SM BR OVC009
     FM201000 11006KT 4SM BR OVC004=



000
FTUS44 KMAF 191800 AAA
TAFMAF
TAF AMD
KMAF 191827Z 1918/2018 12010KT P6SM -RA OVC006
      TEMPO 1918/1920 3SM RA
     FM200600 10006KT 5SM BR OVC009
     FM201000 11006KT 4SM BR OVC004=



000
FTUS44 KMAF 191700
TAFMAF
TAF
KMAF 191736Z 1918/2018 12010KT P6SM -RA OVC006
     FM200600 10006KT 5SM BR OVC009
     FM201000 11006KT 4SM BR OVC004=



000
FTUS44 KMAF 191400 AAA
TAFMAF
TAF AMD
KMAF 191438Z 1915/2012 12010KT P6SM -RA OVC010
      TEMPO 1915/1919 4SM TSRA BR OVC003CB
     FM191900 13012KT P6SM -RA OVC010
      TEMPO 1919/1923 5SM TSRA OVC020CB
     FM200600 10006KT 5SM BR OVC009
     FM201000 11006KT 4SM BR OVC004=



000
FTUS44 KMAF 191100
TAFMAF
TAF
KMAF 191120Z 1912/2012 12010KT P6SM OVC004
      TEMPO 1912/1916 3SM TSRA BR OVC003CB
     FM191600 12010KT P6SM OVC020
      TEMPO 1916/1920 3SM TSRA BR OVC010CB
     FM192000 13012KT P6SM OVC030
      TEMPO 1920/1924 5SM TSRA OVC020CB
     FM200600 10006KT 5SM BR OVC009
     FM201000 11006KT 4SM BR OVC004=



000
FTUS44 KMAF 191000 AAA
TAFMAF
TAF AMD
KMAF 191011Z 1910/2006 12010KT P6SM OVC005
      TEMPO 1912/1916 3SM TSRA BR OVC004CB
     FM191600 12010KT P6SM OVC020
      TEMPO 1916/1920 3SM TSRA BR OVC010CB
     FM192000 13012KT P6SM OVC030
      TEMPO 1920/1924 5SM TSRA OVC020CB=



000
FTUS44 KMAF 190900 AAB
TAFMAF
TAF AMD
KMAF 190907Z 1909/2006 13009KT P6SM FEW009 BKN014
      TEMPO 1909/1912 4SM -TSRA BKN007CB
     FM191200 14010KT P6SM BKN015
      TEMPO 1912/1916 3SM TSRA BR OVC013CB
     FM191600 12010KT P6SM OVC020
      TEMPO 1916/1920 3SM TSRA BR OVC010CB
     FM192000 13012KT P6SM OVC030
      TEMPO 1920/1924 5SM TSRA OVC020CB=



000
FTUS44 KMAF 190600 AAA
TAFMAF
TAF AMD
KMAF 190653Z 1907/2006 13009KT P6SM FEW009 BKN014
      TEMPO 1912/1916 3SM TSRA BR OVC013CB
     FM191600 12010KT P6SM OVC020
      TEMPO 1916/1920 3SM TSRA BR OVC010CB
     FM192000 13012KT P6SM OVC030
      TEMPO 1920/1924 5SM TSRA OVC020CB=



000
FTUS44 KMAF 190500
TAFMAF
TAF
KMAF 190530Z 1906/2006 11008KT P6SM -SHRA BKN008 OVC010
      TEMPO 1908/1912 3SM TSRA BR BKN005CB
     FM191200 11009KT P6SM OVC020
      TEMPO 1912/1916 3SM TSRA BR OVC010CB
     FM191600 12010KT P6SM OVC020
      TEMPO 1916/1920 3SM TSRA BR OVC010CB
     FM192000 13012KT P6SM OVC030
      TEMPO 1920/1924 5SM TSRA OVC020CB=



000
FTUS44 KMAF 190000 AAB
TAFMAF
TAF AMD
KMAF 190018Z 1900/1924 07012KT 5SM -SHRA BR SCT010 OVC090
     FM190400 11010KT P6SM OVC020
      TEMPO 1904/1908 4SM TSRA BR BKN015CB
     FM190800 11009KT P6SM OVC020
      TEMPO 1908/1912 4SM TSRA BR OVC010CB
     FM191200 12010KT P6SM OVC020
      TEMPO 1912/1916 4SM TSRA BR OVC010CB
     FM191600 13012KT P6SM OVC030
      TEMPO 1916/1920 5SM TSRA OVC020CB=



000
FTUS44 KMAF 190000 AAA
TAFMAF
TAF AMD
KMAF 190001Z 1900/1924 07012KT 6SM -SHRA BR SCT010 OVC090
     FM190400 11010KT P6SM OVC020
      TEMPO 1904/1908 4SM TSRA BR BKN015CB
     FM190800 11009KT P6SM OVC020
      TEMPO 1908/1912 4SM TSRA BR OVC010CB
     FM191200 12010KT P6SM OVC020
      TEMPO 1912/1916 4SM TSRA BR OVC010CB
     FM191600 13012KT P6SM OVC030
      TEMPO 1916/1920 5SM TSRA OVC020CB=



000
FTUS44 KMAF 182300
TAFMAF
TAF
KMAF 182330Z 1900/1924 07012KT P6SM SCT010 OVC100
     FM190400 11010KT P6SM OVC020
      TEMPO 1904/1908 4SM TSRA BR BKN015CB
     FM190800 11009KT P6SM OVC020
      TEMPO 1908/1912 4SM TSRA BR OVC010CB
     FM191200 12010KT P6SM OVC020
      TEMPO 1912/1916 4SM TSRA BR OVC010CB
     FM191600 13012KT P6SM OVC030
      TEMPO 1916/1920 5SM TSRA OVC020CB=



000
FTUS44 KMAF 181900 AAA
TAFMAF
TAF AMD
KMAF 181951Z 1820/1918 05011KT P6SM SCT025 BKN100
      TEMPO 1820/1824 VRB10G25KT 3SM TSRA BKN015 BKN040CB
     FM191000 09006KT P6SM OVC015=



000
FTUS44 KMAF 181700
TAFMAF
TAF
KMAF 181740Z 1818/1918 07008KT P6SM SCT035 BKN100
      TEMPO 1820/1824 VRB10G25KT 3SM TSRA BKN015 BKN040CB
     FM191000 13006KT P6SM OVC015=



000
FTUS44 KMAF 181100
TAFMAF
TAF
KMAF 181120Z 1812/1912 12005KT P6SM BKN130
     FM181600 08009KT P6SM SCT035 BKN130
     FM190100 10009KT P6SM OVC035
     FM191000 13006KT P6SM OVC030=



000
FTUS44 KMAF 180800 AAA
TAFMAF
TAF AMD
KMAF 180807Z 1808/1906 13005KT P6SM SCT090 BKN120
     FM181600 08007KT P6SM SCT035 OVC130
     FM190100 09010KT P6SM OVC035
     FM190400 11009KT P6SM OVC030=



000
FTUS44 KMAF 180500
TAFMAF
TAF
KMAF 180527Z 1806/1906 13006KT P6SM OVC130
      TEMPO 1806/1810 VRB15G25KT 6SM TSRA FEW035CB SCT050 OVC090
     FM181200 14007KT P6SM BKN025
     FM181700 12008KT P6SM BKN040
     FM190000 09011KT P6SM OVC035
     FM190400 12008KT P6SM OVC030=



000
FTUS44 KMAF 180400 AAA
TAFMAF
TAF AMD
KMAF 180415Z 1804/1824 08010KT P6SM SCT060 BKN150
      TEMPO 1804/1806 -SHRA
     FM181200 14007KT P6SM BKN025
     FM181700 12008KT P6SM BKN040=



000
FTUS44 KMAF 180100 AAA
TAFMAF
TAF AMD
KMAF 180114Z 1801/1824 10010KT P6SM SCT060 BKN150
     FM181200 14007KT P6SM BKN025
     FM181700 12008KT P6SM BKN040=



000
FTUS44 KMAF 172300
TAFMAF
TAF
KMAF 172320Z 1800/1824 18006KT P6SM SCT060 BKN150
     FM181200 14007KT P6SM BKN025
     FM181700 12008KT P6SM BKN040=



    US Dept of Commerce
    National Oceanic and Atmospheric Administration
    National Weather Service
    1325 East West Highway
    Silver Spring, MD 20910
    Page Author: NWS Internet Services Team
Disclaimer
Information Quality
Credits
Glossary
Privacy Policy
Freedom of Information Act (FOIA)
About Us
Career Opportunities